sensor_id;sensor_type;location;lat;lon;timestamp;temperature;humidity
20463;DHT22;10390;53.566;9.980;2024-01-16T00:01:57;26.10;1.00
20463;DHT22;10390;53.566;9.980;2024-01-16T00:04:23;26.10;1.00
20463;DHT22;10390;53.566;9.980;2024-01-16T00:06:52;26.10;1.00
20463;DHT22;10390;53.566;9.980;2024-01-16T00:09:17;26.10;1.00
20463;DHT22;10390;53.566;9.980;2024-01-16T00:11:43;26.10;1.00
20463;DHT22;10390;53.566;9.980;2024-01-16T00:14:09;26.10;1.00
20463;DHT22;10390;53.566;9.980;2024-01-16T00:16:46;26.10;1.00
20463;DHT22;10390;53.566;9.980;2024-01-16T00:19:13;26.10;1.00
20463;DHT22;10390;53.566;9.980;2024-01-16T00:21:45;26.10;1.00
20463;DHT22;10390;53.566;9.980;2024-01-16T00:24:16;26.10;1.00
20463;DHT22;10390;53.566;9.980;2024-01-16T00:26:42;26.10;1.00
20463;DHT22;10390;53.566;9.980;2024-01-16T00:29:08;26.10;1.00
20463;DHT22;10390;53.566;9.980;2024-01-16T00:31:34;26.20;1.00
20463;DHT22;10390;53.566;9.980;2024-01-16T00:34:00;26.20;1.00
20463;DHT22;10390;53.566;9.980;2024-01-16T00:36:26;26.20;1.00
20463;DHT22;10390;53.566;9.980;2024-01-16T00:38:52;26.20;1.00
20463;DHT22;10390;53.566;9.980;2024-01-16T00:41:17;26.30;1.00
20463;DHT22;10390;53.566;9.980;2024-01-16T00:43:44;26.30;1.00
20463;DHT22;10390;53.566;9.980;2024-01-16T00:46:09;26.20;1.00
20463;DHT22;10390;53.566;9.980;2024-01-16T00:48:35;26.30;1.00
20463;DHT22;10390;53.566;9.980;2024-01-16T00:51:01;26.30;1.00
20463;DHT22;10390;53.566;9.980;2024-01-16T00:53:27;26.30;1.00
20463;DHT22;10390;53.566;9.980;2024-01-16T00:55:53;26.30;1.00
20463;DHT22;10390;53.566;9.980;2024-01-16T00:58:21;26.30;1.00
20463;DHT22;10390;53.566;9.980;2024-01-16T01:00:47;26.30;1.00
20463;DHT22;10390;53.566;9.980;2024-01-16T01:03:13;26.30;1.00
20463;DHT22;10390;53.566;9.980;2024-01-16T01:05:38;26.30;1.00
20463;DHT22;10390;53.566;9.980;2024-01-16T01:08:04;26.30;1.00
20463;DHT22;10390;53.566;9.980;2024-01-16T01:10:30;26.40;1.00
20463;DHT22;10390;53.566;9.980;2024-01-16T01:12:55;26.30;1.00
20463;DHT22;10390;53.566;9.980;2024-01-16T01:15:21;26.30;1.00
20463;DHT22;10390;53.566;9.980;2024-01-16T01:17:50;26.30;1.00
20463;DHT22;10390;53.566;9.980;2024-01-16T01:20:18;26.30;1.00
20463;DHT22;10390;53.566;9.980;2024-01-16T01:22:44;26.40;1.00
20463;DHT22;10390;53.566;9.980;2024-01-16T01:25:11;26.40;1.00
20463;DHT22;10390;53.566;9.980;2024-01-16T01:27:37;26.40;1.00
20463;DHT22;10390;53.566;9.980;2024-01-16T01:30:03;26.40;1.00
20463;DHT22;10390;53.566;9.980;2024-01-16T01:32:29;26.40;1.00
20463;DHT22;10390;53.566;9.980;2024-01-16T01:34:54;26.40;1.00
20463;DHT22;10390;53.566;9.980;2024-01-16T01:37:20;26.40;1.00
20463;DHT22;10390;53.566;9.980;2024-01-16T01:39:46;26.40;1.00
20463;DHT22;10390;53.566;9.980;2024-01-16T01:42:11;26.40;1.00
20463;DHT22;10390;53.566;9.980;2024-01-16T01:44:37;26.40;1.00
20463;DHT22;10390;53.566;9.980;2024-01-16T01:47:03;26.40;1.00
20463;DHT22;10390;53.566;9.980;2024-01-16T01:49:30;26.40;1.00
20463;DHT22;10390;53.566;9.980;2024-01-16T01:51:56;26.30;1.00
20463;DHT22;10390;53.566;9.980;2024-01-16T01:54:22;26.30;1.00
20463;DHT22;10390;53.566;9.980;2024-01-16T01:56:49;26.30;1.00
20463;DHT22;10390;53.566;9.980;2024-01-16T01:59:17;26.30;1.00
20463;DHT22;10390;53.566;9.980;2024-01-16T02:01:45;26.30;1.00
20463;DHT22;10390;53.566;9.980;2024-01-16T02:04:14;26.30;1.00
20463;DHT22;10390;53.566;9.980;2024-01-16T02:06:42;26.30;1.00
20463;DHT22;10390;53.566;9.980;2024-01-16T02:09:10;26.40;1.00
20463;DHT22;10390;53.566;9.980;2024-01-16T02:11:35;26.40;1.00
20463;DHT22;10390;53.566;9.980;2024-01-16T02:14:01;26.30;1.00
20463;DHT22;10390;53.566;9.980;2024-01-16T02:16:35;26.30;1.00
20463;DHT22;10390;53.566;9.980;2024-01-16T02:19:02;26.40;1.00
20463;DHT22;10390;53.566;9.980;2024-01-16T02:21:28;26.40;1.00
20463;DHT22;10390;53.566;9.980;2024-01-16T02:23:57;26.40;1.00
20463;DHT22;10390;53.566;9.980;2024-01-16T02:26:23;26.40;1.00
20463;DHT22;10390;53.566;9.980;2024-01-16T02:28:49;26.40;1.00
20463;DHT22;10390;53.566;9.980;2024-01-16T02:31:14;26.40;1.00
20463;DHT22;10390;53.566;9.980;2024-01-16T02:33:40;26.40;1.00
20463;DHT22;10390;53.566;9.980;2024-01-16T02:36:06;26.40;1.00
20463;DHT22;10390;53.566;9.980;2024-01-16T02:38:31;26.40;1.00
20463;DHT22;10390;53.566;9.980;2024-01-16T02:40:57;26.40;1.00
20463;DHT22;10390;53.566;9.980;2024-01-16T02:43:23;26.40;1.00
20463;DHT22;10390;53.566;9.980;2024-01-16T02:45:48;26.40;1.00
20463;DHT22;10390;53.566;9.980;2024-01-16T02:48:14;26.40;1.00
20463;DHT22;10390;53.566;9.980;2024-01-16T02:50:40;26.40;1.00
20463;DHT22;10390;53.566;9.980;2024-01-16T02:53:06;26.40;1.00
20463;DHT22;10390;53.566;9.980;2024-01-16T02:55:32;26.40;1.00
20463;DHT22;10390;53.566;9.980;2024-01-16T02:57:57;26.40;1.00
20463;DHT22;10390;53.566;9.980;2024-01-16T03:00:23;26.40;1.00
20463;DHT22;10390;53.566;9.980;2024-01-16T03:02:48;26.40;1.00
20463;DHT22;10390;53.566;9.980;2024-01-16T03:05:14;26.30;1.00
20463;DHT22;10390;53.566;9.980;2024-01-16T03:07:40;26.40;1.00
20463;DHT22;10390;53.566;9.980;2024-01-16T03:10:06;26.40;1.00
20463;DHT22;10390;53.566;9.980;2024-01-16T03:12:32;26.40;1.00
20463;DHT22;10390;53.566;9.980;2024-01-16T03:14:58;26.40;1.00
20463;DHT22;10390;53.566;9.980;2024-01-16T03:17:24;26.40;1.00
20463;DHT22;10390;53.566;9.980;2024-01-16T03:19:49;26.40;1.00
20463;DHT22;10390;53.566;9.980;2024-01-16T03:22:15;26.40;1.00
20463;DHT22;10390;53.566;9.980;2024-01-16T03:24:40;26.40;1.00
20463;DHT22;10390;53.566;9.980;2024-01-16T03:27:06;26.40;1.00
20463;DHT22;10390;53.566;9.980;2024-01-16T03:29:32;26.40;1.00
20463;DHT22;10390;53.566;9.980;2024-01-16T03:31:59;26.40;1.00
20463;DHT22;10390;53.566;9.980;2024-01-16T03:34:25;26.40;1.00
20463;DHT22;10390;53.566;9.980;2024-01-16T03:36:50;26.40;1.00
20463;DHT22;10390;53.566;9.980;2024-01-16T03:39:16;26.40;1.00
20463;DHT22;10390;53.566;9.980;2024-01-16T03:41:42;26.40;1.00
20463;DHT22;10390;53.566;9.980;2024-01-16T03:44:07;26.40;1.00
20463;DHT22;10390;53.566;9.980;2024-01-16T03:46:33;26.40;1.00
20463;DHT22;10390;53.566;9.980;2024-01-16T03:48:58;26.40;1.00
20463;DHT22;10390;53.566;9.980;2024-01-16T03:51:24;26.40;1.00
20463;DHT22;10390;53.566;9.980;2024-01-16T03:53:49;26.50;1.00
20463;DHT22;10390;53.566;9.980;2024-01-16T03:56:16;26.40;1.00
20463;DHT22;10390;53.566;9.980;2024-01-16T03:58:42;26.40;1.00
20463;DHT22;10390;53.566;9.980;2024-01-16T04:01:08;26.40;1.00
20463;DHT22;10390;53.566;9.980;2024-01-16T04:03:34;26.40;1.00
20463;DHT22;10390;53.566;9.980;2024-01-16T04:06:01;26.40;1.00
20463;DHT22;10390;53.566;9.980;2024-01-16T04:08:26;26.50;1.00
20463;DHT22;10390;53.566;9.980;2024-01-16T04:10:52;26.40;1.00
20463;DHT22;10390;53.566;9.980;2024-01-16T04:13:17;26.40;1.00
20463;DHT22;10390;53.566;9.980;2024-01-16T04:15:43;26.40;1.00
20463;DHT22;10390;53.566;9.980;2024-01-16T04:18:09;26.40;1.00
20463;DHT22;10390;53.566;9.980;2024-01-16T04:20:35;26.40;1.00
20463;DHT22;10390;53.566;9.980;2024-01-16T04:23:01;26.40;1.00
20463;DHT22;10390;53.566;9.980;2024-01-16T04:25:26;26.40;1.00
20463;DHT22;10390;53.566;9.980;2024-01-16T04:27:52;26.40;1.00
20463;DHT22;10390;53.566;9.980;2024-01-16T04:30:17;26.40;1.00
20463;DHT22;10390;53.566;9.980;2024-01-16T04:32:45;26.40;1.00
20463;DHT22;10390;53.566;9.980;2024-01-16T04:35:11;26.40;1.00
20463;DHT22;10390;53.566;9.980;2024-01-16T04:37:36;26.40;1.00
20463;DHT22;10390;53.566;9.980;2024-01-16T04:40:02;26.40;1.00
20463;DHT22;10390;53.566;9.980;2024-01-16T04:42:30;26.40;1.00
20463;DHT22;10390;53.566;9.980;2024-01-16T04:44:55;26.40;1.00
20463;DHT22;10390;53.566;9.980;2024-01-16T04:47:21;26.40;1.00
20463;DHT22;10390;53.566;9.980;2024-01-16T04:49:47;26.40;1.00
20463;DHT22;10390;53.566;9.980;2024-01-16T04:52:12;26.50;1.00
20463;DHT22;10390;53.566;9.980;2024-01-16T04:54:39;26.40;1.00
20463;DHT22;10390;53.566;9.980;2024-01-16T04:57:04;26.40;1.00
20463;DHT22;10390;53.566;9.980;2024-01-16T04:59:30;26.40;1.00
20463;DHT22;10390;53.566;9.980;2024-01-16T05:01:56;26.40;1.00
20463;DHT22;10390;53.566;9.980;2024-01-16T05:04:21;26.40;1.00
20463;DHT22;10390;53.566;9.980;2024-01-16T05:06:50;26.40;1.00
20463;DHT22;10390;53.566;9.980;2024-01-16T05:09:16;26.40;1.00
20463;DHT22;10390;53.566;9.980;2024-01-16T05:11:41;26.40;1.00
20463;DHT22;10390;53.566;9.980;2024-01-16T05:14:07;26.40;1.00
20463;DHT22;10390;53.566;9.980;2024-01-16T05:16:33;26.40;1.00
20463;DHT22;10390;53.566;9.980;2024-01-16T05:18:58;26.40;1.00
20463;DHT22;10390;53.566;9.980;2024-01-16T05:21:24;26.40;1.00
20463;DHT22;10390;53.566;9.980;2024-01-16T05:23:49;26.40;1.00
20463;DHT22;10390;53.566;9.980;2024-01-16T05:26:15;26.40;1.00
20463;DHT22;10390;53.566;9.980;2024-01-16T05:28:40;26.40;1.00
20463;DHT22;10390;53.566;9.980;2024-01-16T05:31:06;26.40;1.00
20463;DHT22;10390;53.566;9.980;2024-01-16T05:33:32;26.30;1.00
20463;DHT22;10390;53.566;9.980;2024-01-16T05:35:58;26.40;1.00
20463;DHT22;10390;53.566;9.980;2024-01-16T05:38:23;26.40;1.00
20463;DHT22;10390;53.566;9.980;2024-01-16T05:40:49;26.30;1.00
20463;DHT22;10390;53.566;9.980;2024-01-16T05:43:15;26.30;1.00
20463;DHT22;10390;53.566;9.980;2024-01-16T05:45:40;26.30;1.00
20463;DHT22;10390;53.566;9.980;2024-01-16T05:48:06;26.30;1.00
20463;DHT22;10390;53.566;9.980;2024-01-16T05:50:36;26.30;1.00
20463;DHT22;10390;53.566;9.980;2024-01-16T05:53:02;26.30;1.00
20463;DHT22;10390;53.566;9.980;2024-01-16T05:55:28;26.30;1.00
20463;DHT22;10390;53.566;9.980;2024-01-16T05:57:57;26.30;1.00
20463;DHT22;10390;53.566;9.980;2024-01-16T06:00:26;26.40;1.00
20463;DHT22;10390;53.566;9.980;2024-01-16T06:02:52;26.30;1.00
20463;DHT22;10390;53.566;9.980;2024-01-16T06:05:18;26.40;1.00
20463;DHT22;10390;53.566;9.980;2024-01-16T06:07:43;26.40;1.00
20463;DHT22;10390;53.566;9.980;2024-01-16T06:10:12;26.40;1.00
20463;DHT22;10390;53.566;9.980;2024-01-16T06:12:37;26.30;1.00
20463;DHT22;10390;53.566;9.980;2024-01-16T06:15:03;26.30;1.00
20463;DHT22;10390;53.566;9.980;2024-01-16T06:17:29;26.40;1.00
20463;DHT22;10390;53.566;9.980;2024-01-16T06:19:55;26.40;1.00
20463;DHT22;10390;53.566;9.980;2024-01-16T06:22:20;26.30;1.00
20463;DHT22;10390;53.566;9.980;2024-01-16T06:24:46;26.30;1.00
20463;DHT22;10390;53.566;9.980;2024-01-16T06:27:12;26.30;1.00
20463;DHT22;10390;53.566;9.980;2024-01-16T06:29:45;26.30;1.00
20463;DHT22;10390;53.566;9.980;2024-01-16T06:32:10;26.20;1.00
20463;DHT22;10390;53.566;9.980;2024-01-16T06:34:36;26.20;1.00
20463;DHT22;10390;53.566;9.980;2024-01-16T06:37:02;26.20;1.00
20463;DHT22;10390;53.566;9.980;2024-01-16T06:39:27;26.20;1.00
20463;DHT22;10390;53.566;9.980;2024-01-16T06:41:53;26.10;1.00
20463;DHT22;10390;53.566;9.980;2024-01-16T06:44:19;26.10;1.00
20463;DHT22;10390;53.566;9.980;2024-01-16T06:46:44;26.10;1.00
20463;DHT22;10390;53.566;9.980;2024-01-16T06:49:10;26.10;1.00
20463;DHT22;10390;53.566;9.980;2024-01-16T06:51:36;26.20;1.00
20463;DHT22;10390;53.566;9.980;2024-01-16T06:54:02;26.20;1.00
20463;DHT22;10390;53.566;9.980;2024-01-16T06:56:29;26.20;1.00
20463;DHT22;10390;53.566;9.980;2024-01-16T06:58:55;26.20;1.00
20463;DHT22;10390;53.566;9.980;2024-01-16T07:01:21;26.20;1.00
20463;DHT22;10390;53.566;9.980;2024-01-16T07:03:47;26.20;1.00
20463;DHT22;10390;53.566;9.980;2024-01-16T07:06:12;26.30;1.00
20463;DHT22;10390;53.566;9.980;2024-01-16T07:08:38;26.30;1.00
20463;DHT22;10390;53.566;9.980;2024-01-16T07:11:04;26.30;1.00
20463;DHT22;10390;53.566;9.980;2024-01-16T07:13:33;26.30;1.00
20463;DHT22;10390;53.566;9.980;2024-01-16T07:15:59;26.30;1.00
20463;DHT22;10390;53.566;9.980;2024-01-16T07:18:27;26.30;1.00
20463;DHT22;10390;53.566;9.980;2024-01-16T07:20:53;26.20;1.00
20463;DHT22;10390;53.566;9.980;2024-01-16T07:23:19;26.30;1.00
20463;DHT22;10390;53.566;9.980;2024-01-16T07:25:44;26.30;1.00
20463;DHT22;10390;53.566;9.980;2024-01-16T07:28:10;26.30;1.00
20463;DHT22;10390;53.566;9.980;2024-01-16T07:30:35;26.20;1.00
20463;DHT22;10390;53.566;9.980;2024-01-16T07:33:03;26.20;1.00
20463;DHT22;10390;53.566;9.980;2024-01-16T07:35:28;26.20;1.00
20463;DHT22;10390;53.566;9.980;2024-01-16T07:37:54;26.20;1.00
20463;DHT22;10390;53.566;9.980;2024-01-16T07:40:19;26.20;1.00
20463;DHT22;10390;53.566;9.980;2024-01-16T07:42:45;26.20;1.00
20463;DHT22;10390;53.566;9.980;2024-01-16T07:45:11;26.20;1.00
20463;DHT22;10390;53.566;9.980;2024-01-16T07:47:37;26.20;1.00
20463;DHT22;10390;53.566;9.980;2024-01-16T07:50:03;26.20;1.00
20463;DHT22;10390;53.566;9.980;2024-01-16T07:52:29;26.20;1.00
20463;DHT22;10390;53.566;9.980;2024-01-16T07:54:55;26.20;1.00
20463;DHT22;10390;53.566;9.980;2024-01-16T07:57:20;26.20;1.00
20463;DHT22;10390;53.566;9.980;2024-01-16T07:59:46;26.20;1.00
20463;DHT22;10390;53.566;9.980;2024-01-16T08:02:11;26.20;1.00
20463;DHT22;10390;53.566;9.980;2024-01-16T08:04:37;26.20;1.00
20463;DHT22;10390;53.566;9.980;2024-01-16T08:07:03;26.20;1.00
20463;DHT22;10390;53.566;9.980;2024-01-16T08:09:29;26.30;1.00
20463;DHT22;10390;53.566;9.980;2024-01-16T08:11:54;26.30;1.00
20463;DHT22;10390;53.566;9.980;2024-01-16T08:14:20;26.30;1.00
20463;DHT22;10390;53.566;9.980;2024-01-16T08:16:46;26.40;1.00
20463;DHT22;10390;53.566;9.980;2024-01-16T08:19:11;26.40;1.00
20463;DHT22;10390;53.566;9.980;2024-01-16T08:21:37;26.40;1.00
20463;DHT22;10390;53.566;9.980;2024-01-16T08:24:02;26.40;1.00
20463;DHT22;10390;53.566;9.980;2024-01-16T08:26:28;26.40;1.00
20463;DHT22;10390;53.566;9.980;2024-01-16T08:28:54;26.50;1.00
20463;DHT22;10390;53.566;9.980;2024-01-16T08:31:20;26.50;1.00
20463;DHT22;10390;53.566;9.980;2024-01-16T08:33:45;26.50;1.00
20463;DHT22;10390;53.566;9.980;2024-01-16T08:36:11;26.50;1.00
20463;DHT22;10390;53.566;9.980;2024-01-16T08:38:37;26.50;1.00
20463;DHT22;10390;53.566;9.980;2024-01-16T08:41:02;26.50;1.00
20463;DHT22;10390;53.566;9.980;2024-01-16T08:43:33;26.50;1.00
20463;DHT22;10390;53.566;9.980;2024-01-16T08:45:58;26.50;1.00
20463;DHT22;10390;53.566;9.980;2024-01-16T08:48:24;26.40;1.00
20463;DHT22;10390;53.566;9.980;2024-01-16T08:50:51;26.40;1.00
20463;DHT22;10390;53.566;9.980;2024-01-16T08:53:17;26.30;1.00
20463;DHT22;10390;53.566;9.980;2024-01-16T08:55:42;26.30;1.00
20463;DHT22;10390;53.566;9.980;2024-01-16T08:58:08;26.20;1.00
20463;DHT22;10390;53.566;9.980;2024-01-16T09:00:33;26.20;1.00
20463;DHT22;10390;53.566;9.980;2024-01-16T09:02:59;26.10;1.00
20463;DHT22;10390;53.566;9.980;2024-01-16T09:05:25;26.10;1.00
20463;DHT22;10390;53.566;9.980;2024-01-16T09:07:51;26.10;1.00
20463;DHT22;10390;53.566;9.980;2024-01-16T09:10:18;26.00;1.00
20463;DHT22;10390;53.566;9.980;2024-01-16T09:12:43;25.90;1.00
20463;DHT22;10390;53.566;9.980;2024-01-16T09:15:10;25.90;1.00
20463;DHT22;10390;53.566;9.980;2024-01-16T09:17:35;25.80;1.00
20463;DHT22;10390;53.566;9.980;2024-01-16T09:20:01;25.80;1.00
20463;DHT22;10390;53.566;9.980;2024-01-16T09:22:27;25.70;1.00
20463;DHT22;10390;53.566;9.980;2024-01-16T09:24:52;25.70;1.00
20463;DHT22;10390;53.566;9.980;2024-01-16T09:27:18;25.70;1.00
20463;DHT22;10390;53.566;9.980;2024-01-16T09:29:45;25.70;1.00
20463;DHT22;10390;53.566;9.980;2024-01-16T09:32:10;25.80;1.00
20463;DHT22;10390;53.566;9.980;2024-01-16T09:34:36;25.80;1.00
20463;DHT22;10390;53.566;9.980;2024-01-16T09:37:02;25.80;1.00
20463;DHT22;10390;53.566;9.980;2024-01-16T09:39:28;25.80;1.00
20463;DHT22;10390;53.566;9.980;2024-01-16T09:41:59;25.80;1.00
20463;DHT22;10390;53.566;9.980;2024-01-16T09:44:25;25.80;1.00
20463;DHT22;10390;53.566;9.980;2024-01-16T09:46:53;25.80;1.00
20463;DHT22;10390;53.566;9.980;2024-01-16T09:49:20;25.80;1.00
20463;DHT22;10390;53.566;9.980;2024-01-16T09:51:46;25.70;1.00
20463;DHT22;10390;53.566;9.980;2024-01-16T09:54:12;25.70;1.00
20463;DHT22;10390;53.566;9.980;2024-01-16T09:56:49;25.70;1.00
20463;DHT22;10390;53.566;9.980;2024-01-16T09:59:17;25.70;1.00
20463;DHT22;10390;53.566;9.980;2024-01-16T10:01:48;25.70;1.00
20463;DHT22;10390;53.566;9.980;2024-01-16T10:04:15;25.70;1.00
20463;DHT22;10390;53.566;9.980;2024-01-16T10:06:41;25.70;1.00
20463;DHT22;10390;53.566;9.980;2024-01-16T10:09:10;25.60;1.00
20463;DHT22;10390;53.566;9.980;2024-01-16T10:11:37;25.60;1.00
20463;DHT22;10390;53.566;9.980;2024-01-16T10:14:03;25.50;1.00
20463;DHT22;10390;53.566;9.980;2024-01-16T10:16:57;25.50;1.00
20463;DHT22;10390;53.566;9.980;2024-01-16T10:19:26;25.50;1.00
20463;DHT22;10390;53.566;9.980;2024-01-16T10:21:52;25.50;1.00
20463;DHT22;10390;53.566;9.980;2024-01-16T10:24:17;25.50;1.00
20463;DHT22;10390;53.566;9.980;2024-01-16T10:26:43;25.40;1.00
20463;DHT22;10390;53.566;9.980;2024-01-16T10:29:08;25.50;1.00
20463;DHT22;10390;53.566;9.980;2024-01-16T10:31:34;25.50;1.00
20463;DHT22;10390;53.566;9.980;2024-01-16T10:34:00;25.50;1.00
20463;DHT22;10390;53.566;9.980;2024-01-16T10:36:26;25.50;1.00
20463;DHT22;10390;53.566;9.980;2024-01-16T10:38:51;25.50;1.00
20463;DHT22;10390;53.566;9.980;2024-01-16T10:41:23;25.50;1.00
20463;DHT22;10390;53.566;9.980;2024-01-16T10:44:04;25.50;1.00
20463;DHT22;10390;53.566;9.980;2024-01-16T10:46:31;25.50;1.00
20463;DHT22;10390;53.566;9.980;2024-01-16T10:49:03;25.50;1.00
20463;DHT22;10390;53.566;9.980;2024-01-16T10:51:30;25.50;1.00
20463;DHT22;10390;53.566;9.980;2024-01-16T10:54:04;25.50;1.00
20463;DHT22;10390;53.566;9.980;2024-01-16T10:56:34;25.50;1.00
20463;DHT22;10390;53.566;9.980;2024-01-16T10:59:21;25.50;1.00
20463;DHT22;10390;53.566;9.980;2024-01-16T11:01:51;25.50;1.00
20463;DHT22;10390;53.566;9.980;2024-01-16T11:04:20;25.50;1.00
20463;DHT22;10390;53.566;9.980;2024-01-16T11:06:47;25.40;1.00
20463;DHT22;10390;53.566;9.980;2024-01-16T11:09:13;25.40;1.00
20463;DHT22;10390;53.566;9.980;2024-01-16T11:11:44;25.40;1.00
20463;DHT22;10390;53.566;9.980;2024-01-16T11:14:13;25.40;1.00
20463;DHT22;10390;53.566;9.980;2024-01-16T11:16:39;25.30;1.00
20463;DHT22;10390;53.566;9.980;2024-01-16T11:19:08;25.30;1.00
20463;DHT22;10390;53.566;9.980;2024-01-16T11:21:35;25.30;1.00
20463;DHT22;10390;53.566;9.980;2024-01-16T11:24:01;25.30;1.00
20463;DHT22;10390;53.566;9.980;2024-01-16T11:26:33;25.30;1.00
20463;DHT22;10390;53.566;9.980;2024-01-16T11:31:53;25.30;1.00
20463;DHT22;10390;53.566;9.980;2024-01-16T11:37:13;25.30;1.00
20463;DHT22;10390;53.566;9.980;2024-01-16T11:39:39;25.30;1.00
20463;DHT22;10390;53.566;9.980;2024-01-16T11:42:06;25.30;1.00
20463;DHT22;10390;53.566;9.980;2024-01-16T11:44:44;25.40;1.00
20463;DHT22;10390;53.566;9.980;2024-01-16T11:47:22;25.40;1.00
20463;DHT22;10390;53.566;9.980;2024-01-16T11:50:07;25.40;1.00
20463;DHT22;10390;53.566;9.980;2024-01-16T11:52:41;25.40;1.00
20463;DHT22;10390;53.566;9.980;2024-01-16T11:55:30;25.40;1.00
20463;DHT22;10390;53.566;9.980;2024-01-16T12:00:41;25.40;1.00
20463;DHT22;10390;53.566;9.980;2024-01-16T12:03:08;25.40;1.00
20463;DHT22;10390;53.566;9.980;2024-01-16T12:05:34;25.30;1.00
20463;DHT22;10390;53.566;9.980;2024-01-16T12:08:00;25.30;1.00
20463;DHT22;10390;53.566;9.980;2024-01-16T12:10:29;25.40;1.00
20463;DHT22;10390;53.566;9.980;2024-01-16T12:13:00;25.40;1.00
20463;DHT22;10390;53.566;9.980;2024-01-16T12:15:27;25.40;1.00
20463;DHT22;10390;53.566;9.980;2024-01-16T12:17:54;25.30;1.00
20463;DHT22;10390;53.566;9.980;2024-01-16T12:20:21;25.40;1.00
20463;DHT22;10390;53.566;9.980;2024-01-16T12:23:13;25.30;1.00
20463;DHT22;10390;53.566;9.980;2024-01-16T12:25:39;25.40;1.00
20463;DHT22;10390;53.566;9.980;2024-01-16T12:28:06;25.40;1.00
20463;DHT22;10390;53.566;9.980;2024-01-16T12:30:34;25.30;1.00
20463;DHT22;10390;53.566;9.980;2024-01-16T12:35:40;25.40;1.00
20463;DHT22;10390;53.566;9.980;2024-01-16T12:38:07;25.40;1.00
20463;DHT22;10390;53.566;9.980;2024-01-16T12:40:45;25.40;1.00
20463;DHT22;10390;53.566;9.980;2024-01-16T12:43:12;25.50;1.00
20463;DHT22;10390;53.566;9.980;2024-01-16T12:45:37;25.50;1.00
20463;DHT22;10390;53.566;9.980;2024-01-16T12:48:04;25.50;1.00
20463;DHT22;10390;53.566;9.980;2024-01-16T12:50:31;25.50;1.00
20463;DHT22;10390;53.566;9.980;2024-01-16T12:53:02;25.50;1.00
20463;DHT22;10390;53.566;9.980;2024-01-16T12:55:28;25.50;1.00
20463;DHT22;10390;53.566;9.980;2024-01-16T13:00:37;25.50;1.00
20463;DHT22;10390;53.566;9.980;2024-01-16T13:03:05;25.50;1.00
20463;DHT22;10390;53.566;9.980;2024-01-16T13:05:30;25.50;1.00
20463;DHT22;10390;53.566;9.980;2024-01-16T13:08:01;25.50;1.00
20463;DHT22;10390;53.566;9.980;2024-01-16T13:10:30;25.50;1.00
20463;DHT22;10390;53.566;9.980;2024-01-16T13:13:15;25.50;1.00
20463;DHT22;10390;53.566;9.980;2024-01-16T13:15:42;25.50;1.00
20463;DHT22;10390;53.566;9.980;2024-01-16T13:20:44;25.50;1.00
20463;DHT22;10390;53.566;9.980;2024-01-16T13:23:12;25.60;1.00
20463;DHT22;10390;53.566;9.980;2024-01-16T13:25:39;25.60;1.00
20463;DHT22;10390;53.566;9.980;2024-01-16T13:28:05;25.50;1.00
20463;DHT22;10390;53.566;9.980;2024-01-16T13:30:33;25.60;1.00
20463;DHT22;10390;53.566;9.980;2024-01-16T13:32:58;25.60;1.00
20463;DHT22;10390;53.566;9.980;2024-01-16T13:35:24;25.60;1.00
20463;DHT22;10390;53.566;9.980;2024-01-16T13:37:49;25.60;1.00
20463;DHT22;10390;53.566;9.980;2024-01-16T13:40:16;25.60;1.00
20463;DHT22;10390;53.566;9.980;2024-01-16T13:42:44;25.60;1.00
20463;DHT22;10390;53.566;9.980;2024-01-16T13:45:11;25.60;1.00
20463;DHT22;10390;53.566;9.980;2024-01-16T13:47:39;25.70;1.00
20463;DHT22;10390;53.566;9.980;2024-01-16T13:50:06;25.60;1.00
20463;DHT22;10390;53.566;9.980;2024-01-16T13:52:33;25.70;1.00
20463;DHT22;10390;53.566;9.980;2024-01-16T13:54:59;25.70;1.00
20463;DHT22;10390;53.566;9.980;2024-01-16T13:57:24;25.80;1.00
20463;DHT22;10390;53.566;9.980;2024-01-16T13:59:50;25.80;1.00
20463;DHT22;10390;53.566;9.980;2024-01-16T14:02:16;25.80;1.00
20463;DHT22;10390;53.566;9.980;2024-01-16T14:04:42;25.80;1.00
20463;DHT22;10390;53.566;9.980;2024-01-16T14:07:07;25.80;1.00
20463;DHT22;10390;53.566;9.980;2024-01-16T14:09:36;25.80;1.00
20463;DHT22;10390;53.566;9.980;2024-01-16T14:12:02;25.80;1.00
20463;DHT22;10390;53.566;9.980;2024-01-16T14:14:27;25.80;1.00
20463;DHT22;10390;53.566;9.980;2024-01-16T14:16:53;25.80;1.00
20463;DHT22;10390;53.566;9.980;2024-01-16T14:19:20;25.80;1.00
20463;DHT22;10390;53.566;9.980;2024-01-16T14:21:46;25.80;1.00
20463;DHT22;10390;53.566;9.980;2024-01-16T14:24:13;25.90;1.00
20463;DHT22;10390;53.566;9.980;2024-01-16T14:26:41;25.80;1.00
20463;DHT22;10390;53.566;9.980;2024-01-16T14:29:09;25.80;1.00
20463;DHT22;10390;53.566;9.980;2024-01-16T14:31:35;25.80;1.00
20463;DHT22;10390;53.566;9.980;2024-01-16T14:34:01;25.80;1.00
20463;DHT22;10390;53.566;9.980;2024-01-16T14:36:26;25.80;1.00
20463;DHT22;10390;53.566;9.980;2024-01-16T14:38:52;25.90;1.00
20463;DHT22;10390;53.566;9.980;2024-01-16T14:41:18;25.90;1.00
20463;DHT22;10390;53.566;9.980;2024-01-16T14:43:44;25.80;1.00
20463;DHT22;10390;53.566;9.980;2024-01-16T14:46:09;25.90;1.00
20463;DHT22;10390;53.566;9.980;2024-01-16T14:48:43;25.80;1.00
20463;DHT22;10390;53.566;9.980;2024-01-16T14:51:09;25.90;1.00
20463;DHT22;10390;53.566;9.980;2024-01-16T14:53:36;25.90;1.00
20463;DHT22;10390;53.566;9.980;2024-01-16T14:56:02;25.80;1.00
20463;DHT22;10390;53.566;9.980;2024-01-16T14:58:28;25.90;1.00
20463;DHT22;10390;53.566;9.980;2024-01-16T15:00:54;25.90;1.00
20463;DHT22;10390;53.566;9.980;2024-01-16T15:03:21;25.90;1.00
20463;DHT22;10390;53.566;9.980;2024-01-16T15:05:48;25.90;1.00
20463;DHT22;10390;53.566;9.980;2024-01-16T15:08:14;25.90;1.00
20463;DHT22;10390;53.566;9.980;2024-01-16T15:10:40;25.90;1.00
20463;DHT22;10390;53.566;9.980;2024-01-16T15:13:06;25.80;1.00
20463;DHT22;10390;53.566;9.980;2024-01-16T15:15:31;25.80;1.00
20463;DHT22;10390;53.566;9.980;2024-01-16T15:17:57;25.80;1.00
20463;DHT22;10390;53.566;9.980;2024-01-16T15:20:23;25.80;1.00
20463;DHT22;10390;53.566;9.980;2024-01-16T15:22:49;25.80;1.00
20463;DHT22;10390;53.566;9.980;2024-01-16T15:25:18;25.80;1.00
20463;DHT22;10390;53.566;9.980;2024-01-16T15:27:47;25.80;1.00
20463;DHT22;10390;53.566;9.980;2024-01-16T15:30:14;25.80;1.00
20463;DHT22;10390;53.566;9.980;2024-01-16T15:32:40;25.70;1.00
20463;DHT22;10390;53.566;9.980;2024-01-16T15:35:05;25.70;1.00
20463;DHT22;10390;53.566;9.980;2024-01-16T15:37:34;25.70;1.00
20463;DHT22;10390;53.566;9.980;2024-01-16T15:40:00;25.60;1.00
20463;DHT22;10390;53.566;9.980;2024-01-16T15:42:26;25.60;1.00
20463;DHT22;10390;53.566;9.980;2024-01-16T15:44:53;25.50;1.00
20463;DHT22;10390;53.566;9.980;2024-01-16T15:47:21;25.50;1.00
20463;DHT22;10390;53.566;9.980;2024-01-16T15:49:46;25.50;1.00
20463;DHT22;10390;53.566;9.980;2024-01-16T15:52:13;25.40;1.00
20463;DHT22;10390;53.566;9.980;2024-01-16T15:54:42;25.40;1.00
20463;DHT22;10390;53.566;9.980;2024-01-16T15:57:08;25.30;1.00
20463;DHT22;10390;53.566;9.980;2024-01-16T15:59:33;25.30;1.00